Terminal Aerodrome Forecast
Issued by NWS North Platte, NE

Home | Current Version | Previous Version | Text Only | Print | Product List | Glossary Off
Versions: 1 2 3 4 5 6 7 8 9 10 11 12 13

000
FTUS43 KLBF 031727
TAFVTN
TAF
KVTN 031727Z 0318/0418 14013KT P6SM SCT120
     FM032300 15011KT P6SM VCTS SCT100CB BKN150
     FM040200 14010KT P6SM SCT070 BKN150
      TEMPO 0402/0406 5SM -TSRA BKN070CB
     FM040700 21006KT P6SM SCT080 BKN150 PROB30 0407/0411 -SHRA
      BKN080=

USA.gov is the U.S. government's official web portal to all federal, state and local government web resources and services.